sensor_id;sensor_type;location;lat;lon;timestamp;P1;durP1;ratioP1;P2;durP2;ratioP2
15679;SDS011;15488;48.114;11.532;2022-08-11T00:01:43;3.83;;;3.53;;
15679;SDS011;15488;48.114;11.532;2022-08-11T00:04:13;3.20;;;3.00;;
15679;SDS011;15488;48.114;11.532;2022-08-11T00:06:43;3.60;;;3.30;;
15679;SDS011;15488;48.114;11.532;2022-08-11T00:09:12;3.40;;;2.80;;
15679;SDS011;15488;48.114;11.532;2022-08-11T00:11:44;3.60;;;3.00;;
15679;SDS011;15488;48.114;11.532;2022-08-11T00:14:14;3.60;;;3.30;;
15679;SDS011;15488;48.114;11.532;2022-08-11T00:16:52;3.30;;;3.00;;
15679;SDS011;15488;48.114;11.532;2022-08-11T00:19:21;3.53;;;2.90;;
15679;SDS011;15488;48.114;11.532;2022-08-11T00:21:53;3.47;;;3.13;;
15679;SDS011;15488;48.114;11.532;2022-08-11T00:24:22;3.40;;;3.10;;
15679;SDS011;15488;48.114;11.532;2022-08-11T00:26:51;3.13;;;2.93;;
15679;SDS011;15488;48.114;11.532;2022-08-11T00:29:20;3.40;;;3.10;;
15679;SDS011;15488;48.114;11.532;2022-08-11T00:31:48;3.57;;;3.00;;
15679;SDS011;15488;48.114;11.532;2022-08-11T00:34:19;3.20;;;2.90;;
15679;SDS011;15488;48.114;11.532;2022-08-11T00:36:50;3.17;;;2.97;;
15679;SDS011;15488;48.114;11.532;2022-08-11T00:39:23;3.17;;;2.90;;
15679;SDS011;15488;48.114;11.532;2022-08-11T00:41:59;3.40;;;3.17;;
15679;SDS011;15488;48.114;11.532;2022-08-11T00:44:37;3.20;;;2.90;;
15679;SDS011;15488;48.114;11.532;2022-08-11T00:47:17;3.70;;;3.20;;
15679;SDS011;15488;48.114;11.532;2022-08-11T00:50:00;3.40;;;3.10;;
15679;SDS011;15488;48.114;11.532;2022-08-11T00:55:38;3.30;;;3.10;;
15679;SDS011;15488;48.114;11.532;2022-08-11T01:01:57;3.70;;;3.17;;
15679;SDS011;15488;48.114;11.532;2022-08-11T01:10:55;3.53;;;3.23;;
15679;SDS011;15488;48.114;11.532;2022-08-11T01:13:47;3.37;;;3.17;;
15679;SDS011;15488;48.114;11.532;2022-08-11T01:16:48;4.30;;;3.30;;
15679;SDS011;15488;48.114;11.532;2022-08-11T01:19:45;4.43;;;3.40;;
15679;SDS011;15488;48.114;11.532;2022-08-11T01:22:43;4.97;;;3.20;;
15679;SDS011;15488;48.114;11.532;2022-08-11T01:31:39;3.77;;;3.33;;
15679;SDS011;15488;48.114;11.532;2022-08-11T01:43:58;3.60;;;3.30;;
15679;SDS011;15488;48.114;11.532;2022-08-11T01:46:56;3.83;;;2.90;;
15679;SDS011;15488;48.114;11.532;2022-08-11T01:49:57;3.40;;;3.10;;
15679;SDS011;15488;48.114;11.532;2022-08-11T01:52:38;3.50;;;3.20;;
15679;SDS011;15488;48.114;11.532;2022-08-11T01:55:13;3.57;;;3.27;;
15679;SDS011;15488;48.114;11.532;2022-08-11T01:57:46;3.60;;;3.27;;
15679;SDS011;15488;48.114;11.532;2022-08-11T02:00:23;3.80;;;3.20;;
15679;SDS011;15488;48.114;11.532;2022-08-11T02:02:57;3.93;;;3.37;;
15679;SDS011;15488;48.114;11.532;2022-08-11T02:08:33;4.37;;;3.37;;
15679;SDS011;15488;48.114;11.532;2022-08-11T02:11:14;3.53;;;3.23;;
15679;SDS011;15488;48.114;11.532;2022-08-11T02:14:05;3.63;;;3.30;;
15679;SDS011;15488;48.114;11.532;2022-08-11T02:16:46;4.70;;;3.40;;
15679;SDS011;15488;48.114;11.532;2022-08-11T02:19:35;4.30;;;3.13;;
15679;SDS011;15488;48.114;11.532;2022-08-11T02:22:31;3.90;;;3.20;;
15679;SDS011;15488;48.114;11.532;2022-08-11T02:25:26;3.90;;;3.50;;
15679;SDS011;15488;48.114;11.532;2022-08-11T02:28:03;3.50;;;3.20;;
15679;SDS011;15488;48.114;11.532;2022-08-11T02:30:38;4.67;;;3.50;;
15679;SDS011;15488;48.114;11.532;2022-08-11T02:33:38;4.33;;;3.50;;
15679;SDS011;15488;48.114;11.532;2022-08-11T02:36:09;3.70;;;3.40;;
15679;SDS011;15488;48.114;11.532;2022-08-11T02:38:47;3.60;;;3.30;;
15679;SDS011;15488;48.114;11.532;2022-08-11T02:41:20;4.03;;;3.63;;
15679;SDS011;15488;48.114;11.532;2022-08-11T02:44:13;3.67;;;3.37;;
15679;SDS011;15488;48.114;11.532;2022-08-11T02:46:54;3.33;;;3.13;;
15679;SDS011;15488;48.114;11.532;2022-08-11T02:49:32;4.93;;;3.57;;
15679;SDS011;15488;48.114;11.532;2022-08-11T02:52:19;5.17;;;3.50;;
15679;SDS011;15488;48.114;11.532;2022-08-11T02:55:01;3.37;;;3.17;;
15679;SDS011;15488;48.114;11.532;2022-08-11T02:57:42;5.33;;;3.50;;
15679;SDS011;15488;48.114;11.532;2022-08-11T03:00:16;4.60;;;3.20;;
15679;SDS011;15488;48.114;11.532;2022-08-11T03:02:59;3.90;;;3.37;;
15679;SDS011;15488;48.114;11.532;2022-08-11T03:05:53;5.60;;;3.47;;
15679;SDS011;15488;48.114;11.532;2022-08-11T03:08:37;4.50;;;3.50;;
15679;SDS011;15488;48.114;11.532;2022-08-11T03:11:20;4.50;;;3.30;;
15679;SDS011;15488;48.114;11.532;2022-08-11T03:14:15;3.53;;;3.23;;
15679;SDS011;15488;48.114;11.532;2022-08-11T03:17:05;3.90;;;3.57;;
15679;SDS011;15488;48.114;11.532;2022-08-11T03:19:45;3.83;;;3.47;;
15679;SDS011;15488;48.114;11.532;2022-08-11T03:22:29;3.90;;;3.50;;
15679;SDS011;15488;48.114;11.532;2022-08-11T03:25:04;5.03;;;3.60;;
15679;SDS011;15488;48.114;11.532;2022-08-11T03:27:43;3.83;;;3.37;;
15679;SDS011;15488;48.114;11.532;2022-08-11T03:30:16;4.93;;;3.33;;
15679;SDS011;15488;48.114;11.532;2022-08-11T03:32:57;3.90;;;3.50;;
15679;SDS011;15488;48.114;11.532;2022-08-11T03:35:53;4.57;;;3.70;;
15679;SDS011;15488;48.114;11.532;2022-08-11T03:38:33;6.47;;;3.80;;
15679;SDS011;15488;48.114;11.532;2022-08-11T03:41:18;3.90;;;3.47;;
15679;SDS011;15488;48.114;11.532;2022-08-11T03:47:09;5.00;;;3.83;;
15679;SDS011;15488;48.114;11.532;2022-08-11T03:49:52;5.27;;;3.90;;
15679;SDS011;15488;48.114;11.532;2022-08-11T03:52:32;4.23;;;3.83;;
15679;SDS011;15488;48.114;11.532;2022-08-11T03:55:13;4.30;;;3.90;;
15679;SDS011;15488;48.114;11.532;2022-08-11T03:58:11;5.10;;;4.03;;
15679;SDS011;15488;48.114;11.532;2022-08-11T04:04:21;4.27;;;3.63;;
15679;SDS011;15488;48.114;11.532;2022-08-11T04:13:36;4.30;;;3.90;;
15679;SDS011;15488;48.114;11.532;2022-08-11T04:16:46;4.33;;;3.93;;
15679;SDS011;15488;48.114;11.532;2022-08-11T04:25:19;4.17;;;3.83;;
15679;SDS011;15488;48.114;11.532;2022-08-11T04:28:04;4.30;;;4.00;;
15679;SDS011;15488;48.114;11.532;2022-08-11T04:31:04;4.60;;;4.13;;
15679;SDS011;15488;48.114;11.532;2022-08-11T04:33:58;5.17;;;4.30;;
15679;SDS011;15488;48.114;11.532;2022-08-11T04:36:44;4.70;;;4.30;;
15679;SDS011;15488;48.114;11.532;2022-08-11T04:39:46;4.60;;;4.17;;
15679;SDS011;15488;48.114;11.532;2022-08-11T04:45:53;5.33;;;3.90;;
15679;SDS011;15488;48.114;11.532;2022-08-11T04:58:51;4.10;;;3.80;;
15679;SDS011;15488;48.114;11.532;2022-08-11T05:02:13;4.80;;;4.17;;
15679;SDS011;15488;48.114;11.532;2022-08-11T05:05:08;4.90;;;4.40;;
15679;SDS011;15488;48.114;11.532;2022-08-11T05:11:06;4.53;;;4.13;;
15679;SDS011;15488;48.114;11.532;2022-08-11T05:14:00;4.73;;;4.23;;
15679;SDS011;15488;48.114;11.532;2022-08-11T05:17:07;5.97;;;4.17;;
15679;SDS011;15488;48.114;11.532;2022-08-11T05:19:54;4.57;;;4.10;;
15679;SDS011;15488;48.114;11.532;2022-08-11T05:22:41;4.60;;;4.20;;
15679;SDS011;15488;48.114;11.532;2022-08-11T05:25:32;4.73;;;4.00;;
15679;SDS011;15488;48.114;11.532;2022-08-11T05:28:27;4.67;;;4.17;;
15679;SDS011;15488;48.114;11.532;2022-08-11T05:31:15;5.67;;;4.40;;
15679;SDS011;15488;48.114;11.532;2022-08-11T05:34:07;4.23;;;3.83;;
15679;SDS011;15488;48.114;11.532;2022-08-11T05:36:55;4.50;;;3.83;;
15679;SDS011;15488;48.114;11.532;2022-08-11T05:39:27;5.30;;;4.60;;
15679;SDS011;15488;48.114;11.532;2022-08-11T05:42:19;4.60;;;4.20;;
15679;SDS011;15488;48.114;11.532;2022-08-11T05:45:09;4.80;;;4.40;;
15679;SDS011;15488;48.114;11.532;2022-08-11T05:47:56;6.23;;;4.60;;
15679;SDS011;15488;48.114;11.532;2022-08-11T05:50:42;4.83;;;4.43;;
15679;SDS011;15488;48.114;11.532;2022-08-11T05:53:34;4.53;;;3.87;;
15679;SDS011;15488;48.114;11.532;2022-08-11T05:56:28;4.57;;;4.17;;
15679;SDS011;15488;48.114;11.532;2022-08-11T05:58:58;4.53;;;4.13;;
15679;SDS011;15488;48.114;11.532;2022-08-11T06:01:26;5.53;;;4.20;;
15679;SDS011;15488;48.114;11.532;2022-08-11T06:03:56;5.50;;;4.30;;
15679;SDS011;15488;48.114;11.532;2022-08-11T06:06:45;5.10;;;4.60;;
15679;SDS011;15488;48.114;11.532;2022-08-11T06:09:23;4.63;;;4.23;;
15679;SDS011;15488;48.114;11.532;2022-08-11T06:11:58;4.87;;;3.93;;
15679;SDS011;15488;48.114;11.532;2022-08-11T06:14:31;7.80;;;4.47;;
15679;SDS011;15488;48.114;11.532;2022-08-11T06:17:01;5.33;;;4.10;;
15679;SDS011;15488;48.114;11.532;2022-08-11T06:19:34;4.30;;;3.90;;
15679;SDS011;15488;48.114;11.532;2022-08-11T06:22:04;5.77;;;4.37;;
15679;SDS011;15488;48.114;11.532;2022-08-11T06:24:34;4.77;;;4.27;;
15679;SDS011;15488;48.114;11.532;2022-08-11T06:27:05;5.77;;;4.20;;
15679;SDS011;15488;48.114;11.532;2022-08-11T06:29:35;5.07;;;4.57;;
15679;SDS011;15488;48.114;11.532;2022-08-11T06:32:05;5.07;;;4.10;;
15679;SDS011;15488;48.114;11.532;2022-08-11T06:34:39;4.77;;;4.27;;
15679;SDS011;15488;48.114;11.532;2022-08-11T06:37:43;4.77;;;4.27;;
15679;SDS011;15488;48.114;11.532;2022-08-11T06:40:22;4.67;;;4.10;;
15679;SDS011;15488;48.114;11.532;2022-08-11T06:42:57;5.13;;;4.63;;
15679;SDS011;15488;48.114;11.532;2022-08-11T06:45:31;4.80;;;4.30;;
15679;SDS011;15488;48.114;11.532;2022-08-11T06:48:05;5.17;;;4.27;;
15679;SDS011;15488;48.114;11.532;2022-08-11T06:50:40;5.07;;;4.30;;
15679;SDS011;15488;48.114;11.532;2022-08-11T06:53:32;4.57;;;4.17;;
15679;SDS011;15488;48.114;11.532;2022-08-11T06:56:01;4.73;;;4.33;;
15679;SDS011;15488;48.114;11.532;2022-08-11T06:58:46;4.83;;;4.40;;
15679;SDS011;15488;48.114;11.532;2022-08-11T07:01:40;4.93;;;4.47;;
15679;SDS011;15488;48.114;11.532;2022-08-11T07:04:17;4.33;;;3.93;;
15679;SDS011;15488;48.114;11.532;2022-08-11T07:06:56;4.40;;;4.00;;
15679;SDS011;15488;48.114;11.532;2022-08-11T07:10:08;5.00;;;3.80;;
15679;SDS011;15488;48.114;11.532;2022-08-11T07:13:06;4.80;;;4.07;;
15679;SDS011;15488;48.114;11.532;2022-08-11T07:15:52;5.73;;;4.20;;
15679;SDS011;15488;48.114;11.532;2022-08-11T07:18:25;4.80;;;4.30;;
15679;SDS011;15488;48.114;11.532;2022-08-11T07:21:14;5.40;;;4.10;;
15679;SDS011;15488;48.114;11.532;2022-08-11T07:24:07;4.40;;;4.00;;
15679;SDS011;15488;48.114;11.532;2022-08-11T07:26:54;4.53;;;4.13;;
15679;SDS011;15488;48.114;11.532;2022-08-11T07:29:41;4.60;;;4.20;;
15679;SDS011;15488;48.114;11.532;2022-08-11T07:32:13;4.17;;;3.77;;
15679;SDS011;15488;48.114;11.532;2022-08-11T07:34:49;4.00;;;3.70;;
15679;SDS011;15488;48.114;11.532;2022-08-11T07:37:25;3.97;;;3.67;;
15679;SDS011;15488;48.114;11.532;2022-08-11T07:39:54;4.73;;;4.03;;
15679;SDS011;15488;48.114;11.532;2022-08-11T07:42:25;5.20;;;4.13;;
15679;SDS011;15488;48.114;11.532;2022-08-11T07:44:56;4.20;;;3.80;;
15679;SDS011;15488;48.114;11.532;2022-08-11T07:47:41;4.57;;;4.17;;
15679;SDS011;15488;48.114;11.532;2022-08-11T07:50:29;4.30;;;3.90;;
15679;SDS011;15488;48.114;11.532;2022-08-11T07:53:15;4.70;;;4.30;;
15679;SDS011;15488;48.114;11.532;2022-08-11T07:55:43;5.13;;;3.97;;
15679;SDS011;15488;48.114;11.532;2022-08-11T07:58:13;4.47;;;4.07;;
15679;SDS011;15488;48.114;11.532;2022-08-11T08:01:00;4.60;;;4.20;;
15679;SDS011;15488;48.114;11.532;2022-08-11T08:06:15;4.30;;;3.97;;
15679;SDS011;15488;48.114;11.532;2022-08-11T08:09:00;4.40;;;4.00;;
15679;SDS011;15488;48.114;11.532;2022-08-11T08:11:46;4.23;;;3.83;;
15679;SDS011;15488;48.114;11.532;2022-08-11T08:14:32;4.57;;;4.10;;
15679;SDS011;15488;48.114;11.532;2022-08-11T08:17:18;5.30;;;3.90;;
15679;SDS011;15488;48.114;11.532;2022-08-11T08:20:04;4.40;;;4.00;;
15679;SDS011;15488;48.114;11.532;2022-08-11T08:22:39;4.27;;;3.90;;
15679;SDS011;15488;48.114;11.532;2022-08-11T08:25:07;5.93;;;4.30;;
15679;SDS011;15488;48.114;11.532;2022-08-11T08:27:35;6.60;;;4.03;;
15679;SDS011;15488;48.114;11.532;2022-08-11T08:30:04;4.47;;;4.13;;
15679;SDS011;15488;48.114;11.532;2022-08-11T08:32:51;4.63;;;4.00;;
15679;SDS011;15488;48.114;11.532;2022-08-11T08:35:21;5.87;;;4.30;;
15679;SDS011;15488;48.114;11.532;2022-08-11T08:37:51;4.50;;;4.10;;
15679;SDS011;15488;48.114;11.532;2022-08-11T08:40:19;4.70;;;4.30;;
15679;SDS011;15488;48.114;11.532;2022-08-11T08:42:48;4.67;;;4.20;;
15679;SDS011;15488;48.114;11.532;2022-08-11T08:45:19;4.77;;;4.27;;
15679;SDS011;15488;48.114;11.532;2022-08-11T08:47:49;4.77;;;4.20;;
15679;SDS011;15488;48.114;11.532;2022-08-11T08:50:20;4.80;;;4.40;;
15679;SDS011;15488;48.114;11.532;2022-08-11T08:53:10;4.43;;;4.03;;
15679;SDS011;15488;48.114;11.532;2022-08-11T08:55:39;4.80;;;4.40;;
15679;SDS011;15488;48.114;11.532;2022-08-11T08:58:07;4.47;;;4.07;;
15679;SDS011;15488;48.114;11.532;2022-08-11T09:00:40;5.63;;;4.10;;
15679;SDS011;15488;48.114;11.532;2022-08-11T09:03:10;4.70;;;4.30;;
15679;SDS011;15488;48.114;11.532;2022-08-11T09:05:39;4.80;;;4.40;;
15679;SDS011;15488;48.114;11.532;2022-08-11T09:08:07;4.50;;;4.10;;
15679;SDS011;15488;48.114;11.532;2022-08-11T09:10:37;4.73;;;4.33;;
15679;SDS011;15488;48.114;11.532;2022-08-11T09:13:05;4.73;;;4.20;;
15679;SDS011;15488;48.114;11.532;2022-08-11T09:15:33;4.17;;;3.87;;
15679;SDS011;15488;48.114;11.532;2022-08-11T09:18:02;4.40;;;4.10;;
15679;SDS011;15488;48.114;11.532;2022-08-11T09:20:34;4.70;;;4.00;;
15679;SDS011;15488;48.114;11.532;2022-08-11T09:23:03;4.60;;;4.20;;
15679;SDS011;15488;48.114;11.532;2022-08-11T09:25:51;4.43;;;4.03;;
15679;SDS011;15488;48.114;11.532;2022-08-11T09:28:38;4.60;;;4.20;;
15679;SDS011;15488;48.114;11.532;2022-08-11T09:31:07;4.47;;;4.07;;
15679;SDS011;15488;48.114;11.532;2022-08-11T09:33:36;4.50;;;4.10;;
15679;SDS011;15488;48.114;11.532;2022-08-11T09:36:05;4.87;;;4.47;;
15679;SDS011;15488;48.114;11.532;2022-08-11T09:38:48;5.20;;;4.00;;
15679;SDS011;15488;48.114;11.532;2022-08-11T09:41:35;5.03;;;4.00;;
15679;SDS011;15488;48.114;11.532;2022-08-11T09:44:05;6.50;;;4.50;;
15679;SDS011;15488;48.114;11.532;2022-08-11T09:46:52;4.00;;;3.70;;
15679;SDS011;15488;48.114;11.532;2022-08-11T09:49:23;4.30;;;3.90;;
15679;SDS011;15488;48.114;11.532;2022-08-11T09:51:52;4.30;;;4.00;;
15679;SDS011;15488;48.114;11.532;2022-08-11T09:54:20;4.63;;;4.23;;
15679;SDS011;15488;48.114;11.532;2022-08-11T09:56:52;5.73;;;4.27;;
15679;SDS011;15488;48.114;11.532;2022-08-11T09:59:46;6.90;;;4.67;;
15679;SDS011;15488;48.114;11.532;2022-08-11T10:02:13;6.97;;;4.13;;
15679;SDS011;15488;48.114;11.532;2022-08-11T10:04:42;4.70;;;4.20;;
15679;SDS011;15488;48.114;11.532;2022-08-11T10:07:13;4.33;;;3.93;;
15679;SDS011;15488;48.114;11.532;2022-08-11T10:09:42;4.40;;;4.00;;
15679;SDS011;15488;48.114;11.532;2022-08-11T10:12:19;4.63;;;4.20;;
15679;SDS011;15488;48.114;11.532;2022-08-11T10:14:51;4.10;;;3.70;;
15679;SDS011;15488;48.114;11.532;2022-08-11T10:17:40;4.13;;;3.63;;
15679;SDS011;15488;48.114;11.532;2022-08-11T10:20:32;7.28;;;3.67;;
15679;SDS011;15488;48.114;11.532;2022-08-11T10:23:02;4.40;;;3.72;;
15679;SDS011;15488;48.114;11.532;2022-08-11T10:25:47;4.25;;;3.75;;
15679;SDS011;15488;48.114;11.532;2022-08-11T10:28:34;3.72;;;3.42;;
15679;SDS011;15488;48.114;11.532;2022-08-11T10:31:03;3.90;;;3.60;;
15679;SDS011;15488;48.114;11.532;2022-08-11T10:33:48;3.85;;;3.55;;
15679;SDS011;15488;48.114;11.532;2022-08-11T10:36:26;4.00;;;3.60;;
15679;SDS011;15488;48.114;11.532;2022-08-11T10:38:55;4.20;;;3.80;;
15679;SDS011;15488;48.114;11.532;2022-08-11T10:41:24;3.80;;;3.40;;
15679;SDS011;15488;48.114;11.532;2022-08-11T10:44:11;5.10;;;3.42;;
15679;SDS011;15488;48.114;11.532;2022-08-11T10:46:39;3.90;;;3.45;;
15679;SDS011;15488;48.114;11.532;2022-08-11T10:49:24;3.83;;;3.53;;
15679;SDS011;15488;48.114;11.532;2022-08-11T10:51:54;3.70;;;3.40;;
15679;SDS011;15488;48.114;11.532;2022-08-11T10:54:40;4.32;;;3.80;;
15679;SDS011;15488;48.114;11.532;2022-08-11T10:57:25;5.18;;;3.72;;
15679;SDS011;15488;48.114;11.532;2022-08-11T11:00:13;5.10;;;3.70;;
15679;SDS011;15488;48.114;11.532;2022-08-11T11:02:43;4.00;;;3.70;;
15679;SDS011;15488;48.114;11.532;2022-08-11T11:05:13;4.50;;;3.63;;
15679;SDS011;15488;48.114;11.532;2022-08-11T11:07:49;3.53;;;3.22;;
15679;SDS011;15488;48.114;11.532;2022-08-11T11:10:21;4.00;;;3.55;;
15679;SDS011;15488;48.114;11.532;2022-08-11T11:12:50;4.40;;;3.80;;
15679;SDS011;15488;48.114;11.532;2022-08-11T11:15:40;3.75;;;3.45;;
15679;SDS011;15488;48.114;11.532;2022-08-11T11:18:28;3.90;;;3.58;;
15679;SDS011;15488;48.114;11.532;2022-08-11T11:21:02;3.85;;;3.55;;
15679;SDS011;15488;48.114;11.532;2022-08-11T11:23:33;4.95;;;3.50;;
15679;SDS011;15488;48.114;11.532;2022-08-11T11:26:16;4.20;;;3.35;;
15679;SDS011;15488;48.114;11.532;2022-08-11T11:29:10;4.10;;;3.70;;
15679;SDS011;15488;48.114;11.532;2022-08-11T11:32:08;3.75;;;3.45;;
15679;SDS011;15488;48.114;11.532;2022-08-11T11:34:51;3.85;;;3.55;;
15679;SDS011;15488;48.114;11.532;2022-08-11T11:37:42;3.75;;;3.45;;
15679;SDS011;15488;48.114;11.532;2022-08-11T11:40:12;4.43;;;3.60;;
15679;SDS011;15488;48.114;11.532;2022-08-11T11:42:45;4.40;;;4.00;;
15679;SDS011;15488;48.114;11.532;2022-08-11T11:45:14;4.28;;;3.97;;
15679;SDS011;15488;48.114;11.532;2022-08-11T11:47:45;4.47;;;3.72;;
15679;SDS011;15488;48.114;11.532;2022-08-11T11:50:17;3.80;;;3.50;;
15679;SDS011;15488;48.114;11.532;2022-08-11T11:52:50;3.83;;;3.50;;
15679;SDS011;15488;48.114;11.532;2022-08-11T11:55:19;3.50;;;3.25;;
15679;SDS011;15488;48.114;11.532;2022-08-11T11:57:49;6.07;;;3.78;;
15679;SDS011;15488;48.114;11.532;2022-08-11T12:00:35;3.83;;;3.50;;
15679;SDS011;15488;48.114;11.532;2022-08-11T12:03:22;3.33;;;3.13;;
15679;SDS011;15488;48.114;11.532;2022-08-11T12:05:51;3.63;;;3.30;;
15679;SDS011;15488;48.114;11.532;2022-08-11T12:08:20;4.75;;;3.20;;
15679;SDS011;15488;48.114;11.532;2022-08-11T12:10:51;3.40;;;3.20;;
15679;SDS011;15488;48.114;11.532;2022-08-11T12:13:40;4.65;;;3.65;;
15679;SDS011;15488;48.114;11.532;2022-08-11T12:16:10;3.42;;;3.13;;
15679;SDS011;15488;48.114;11.532;2022-08-11T12:18:41;5.80;;;3.40;;
15679;SDS011;15488;48.114;11.532;2022-08-11T12:21:10;4.15;;;3.38;;
15679;SDS011;15488;48.114;11.532;2022-08-11T12:23:41;3.60;;;3.30;;
15679;SDS011;15488;48.114;11.532;2022-08-11T12:26:27;3.70;;;3.45;;
15679;SDS011;15488;48.114;11.532;2022-08-11T12:29:14;3.88;;;3.58;;
15679;SDS011;15488;48.114;11.532;2022-08-11T12:31:44;5.78;;;4.18;;
15679;SDS011;15488;48.114;11.532;2022-08-11T12:34:15;5.30;;;3.45;;
15679;SDS011;15488;48.114;11.532;2022-08-11T12:36:44;3.60;;;3.30;;
15679;SDS011;15488;48.114;11.532;2022-08-11T12:39:16;3.72;;;3.50;;
15679;SDS011;15488;48.114;11.532;2022-08-11T12:42:07;3.50;;;3.20;;
15679;SDS011;15488;48.114;11.532;2022-08-11T12:45:02;3.50;;;3.20;;
15679;SDS011;15488;48.114;11.532;2022-08-11T12:47:50;4.18;;;3.58;;
15679;SDS011;15488;48.114;11.532;2022-08-11T12:50:37;4.05;;;3.65;;
15679;SDS011;15488;48.114;11.532;2022-08-11T12:53:23;4.30;;;3.40;;
15679;SDS011;15488;48.114;11.532;2022-08-11T12:55:53;3.40;;;3.13;;
15679;SDS011;15488;48.114;11.532;2022-08-11T12:58:43;3.33;;;3.13;;
15679;SDS011;15488;48.114;11.532;2022-08-11T13:01:13;3.55;;;3.10;;
15679;SDS011;15488;48.114;11.532;2022-08-11T13:03:59;4.53;;;4.22;;
15679;SDS011;15488;48.114;11.532;2022-08-11T13:06:45;6.88;;;4.68;;
15679;SDS011;15488;48.114;11.532;2022-08-11T13:09:15;4.50;;;4.10;;
15679;SDS011;15488;48.114;11.532;2022-08-11T13:11:45;4.43;;;4.03;;
15679;SDS011;15488;48.114;11.532;2022-08-11T13:14:31;3.92;;;3.60;;
15679;SDS011;15488;48.114;11.532;2022-08-11T13:16:59;4.00;;;3.80;;
15679;SDS011;15488;48.114;11.532;2022-08-11T13:19:45;4.00;;;3.70;;
15679;SDS011;15488;48.114;11.532;2022-08-11T13:22:15;3.55;;;3.35;;
15679;SDS011;15488;48.114;11.532;2022-08-11T13:24:44;3.75;;;3.53;;
15679;SDS011;15488;48.114;11.532;2022-08-11T13:27:14;4.20;;;3.90;;
15679;SDS011;15488;48.114;11.532;2022-08-11T13:29:45;3.85;;;3.63;;
15679;SDS011;15488;48.114;11.532;2022-08-11T13:32:14;3.90;;;3.67;;
15679;SDS011;15488;48.114;11.532;2022-08-11T13:34:44;3.97;;;3.67;;
15679;SDS011;15488;48.114;11.532;2022-08-11T13:37:13;3.95;;;3.75;;
15679;SDS011;15488;48.114;11.532;2022-08-11T13:39:45;4.82;;;3.60;;
15679;SDS011;15488;48.114;11.532;2022-08-11T13:42:13;4.50;;;4.30;;
15679;SDS011;15488;48.114;11.532;2022-08-11T13:44:44;4.53;;;4.32;;
15679;SDS011;15488;48.114;11.532;2022-08-11T13:47:12;4.38;;;4.07;;
15679;SDS011;15488;48.114;11.532;2022-08-11T13:49:41;5.78;;;5.47;;
15679;SDS011;15488;48.114;11.532;2022-08-11T13:52:10;5.68;;;5.38;;
15679;SDS011;15488;48.114;11.532;2022-08-11T13:54:41;5.30;;;5.00;;
15679;SDS011;15488;48.114;11.532;2022-08-11T13:57:12;6.00;;;5.60;;
15679;SDS011;15488;48.114;11.532;2022-08-11T13:59:43;6.53;;;6.10;;
15679;SDS011;15488;48.114;11.532;2022-08-11T14:02:12;6.32;;;6.03;;
15679;SDS011;15488;48.114;11.532;2022-08-11T14:04:46;7.28;;;6.75;;
15679;SDS011;15488;48.114;11.532;2022-08-11T14:07:20;7.18;;;6.88;;
15679;SDS011;15488;48.114;11.532;2022-08-11T14:09:52;7.32;;;6.90;;
15679;SDS011;15488;48.114;11.532;2022-08-11T14:12:23;7.07;;;6.68;;
15679;SDS011;15488;48.114;11.532;2022-08-11T14:15:11;6.43;;;6.13;;
15679;SDS011;15488;48.114;11.532;2022-08-11T14:17:44;6.18;;;5.85;;
15679;SDS011;15488;48.114;11.532;2022-08-11T14:20:17;6.15;;;5.78;;
15679;SDS011;15488;48.114;11.532;2022-08-11T14:22:45;7.28;;;6.88;;
15679;SDS011;15488;48.114;11.532;2022-08-11T14:25:15;7.18;;;6.88;;
15679;SDS011;15488;48.114;11.532;2022-08-11T14:27:43;6.88;;;6.57;;
15679;SDS011;15488;48.114;11.532;2022-08-11T14:30:13;5.95;;;5.65;;
15679;SDS011;15488;48.114;11.532;2022-08-11T14:32:55;5.78;;;5.38;;
15679;SDS011;15488;48.114;11.532;2022-08-11T14:35:23;5.43;;;5.13;;
15679;SDS011;15488;48.114;11.532;2022-08-11T14:37:53;6.03;;;5.72;;
15679;SDS011;15488;48.114;11.532;2022-08-11T14:40:23;6.60;;;6.20;;
15679;SDS011;15488;48.114;11.532;2022-08-11T14:43:09;7.35;;;7.05;;
15679;SDS011;15488;48.114;11.532;2022-08-11T14:45:54;7.72;;;7.32;;
15679;SDS011;15488;48.114;11.532;2022-08-11T14:48:40;7.47;;;6.97;;
15679;SDS011;15488;48.114;11.532;2022-08-11T14:51:08;7.13;;;6.72;;
15679;SDS011;15488;48.114;11.532;2022-08-11T14:53:35;7.55;;;7.05;;
15679;SDS011;15488;48.114;11.532;2022-08-11T14:56:04;6.93;;;6.53;;
15679;SDS011;15488;48.114;11.532;2022-08-11T14:58:50;6.45;;;6.15;;
15679;SDS011;15488;48.114;11.532;2022-08-11T15:01:18;6.13;;;5.72;;
15679;SDS011;15488;48.114;11.532;2022-08-11T15:04:03;4.85;;;4.55;;
15679;SDS011;15488;48.114;11.532;2022-08-11T15:06:30;4.20;;;3.90;;
15679;SDS011;15488;48.114;11.532;2022-08-11T15:08:58;4.70;;;4.50;;
15679;SDS011;15488;48.114;11.532;2022-08-11T15:11:29;3.90;;;3.70;;
15679;SDS011;15488;48.114;11.532;2022-08-11T15:14:14;3.30;;;3.10;;
15679;SDS011;15488;48.114;11.532;2022-08-11T15:17:04;3.58;;;3.38;;
15679;SDS011;15488;48.114;11.532;2022-08-11T15:19:32;3.72;;;3.53;;
15679;SDS011;15488;48.114;11.532;2022-08-11T15:22:01;4.20;;;3.90;;
15679;SDS011;15488;48.114;11.532;2022-08-11T15:24:46;4.15;;;3.83;;
15679;SDS011;15488;48.114;11.532;2022-08-11T15:27:16;3.60;;;3.40;;
15679;SDS011;15488;48.114;11.532;2022-08-11T15:30:04;3.85;;;3.63;;
15679;SDS011;15488;48.114;11.532;2022-08-11T15:32:51;4.03;;;3.70;;
15679;SDS011;15488;48.114;11.532;2022-08-11T15:35:36;4.82;;;4.53;;
15679;SDS011;15488;48.114;11.532;2022-08-11T15:38:21;3.97;;;3.67;;
15679;SDS011;15488;48.114;11.532;2022-08-11T15:40:50;3.60;;;3.30;;
15679;SDS011;15488;48.114;11.532;2022-08-11T15:43:42;3.67;;;3.33;;
15679;SDS011;15488;48.114;11.532;2022-08-11T15:46:34;3.42;;;3.22;;
15679;SDS011;15488;48.114;11.532;2022-08-11T15:49:07;3.70;;;3.40;;
15679;SDS011;15488;48.114;11.532;2022-08-11T15:51:39;3.05;;;2.85;;
15679;SDS011;15488;48.114;11.532;2022-08-11T15:54:11;4.32;;;3.92;;
15679;SDS011;15488;48.114;11.532;2022-08-11T15:56:43;3.72;;;3.40;;
15679;SDS011;15488;48.114;11.532;2022-08-11T15:59:16;3.28;;;3.08;;
15679;SDS011;15488;48.114;11.532;2022-08-11T16:02:03;3.35;;;3.00;;
15679;SDS011;15488;48.114;11.532;2022-08-11T16:04:51;3.70;;;3.50;;
15679;SDS011;15488;48.114;11.532;2022-08-11T16:07:22;3.63;;;3.33;;
15679;SDS011;15488;48.114;11.532;2022-08-11T16:09:52;3.90;;;3.60;;
15679;SDS011;15488;48.114;11.532;2022-08-11T16:12:25;3.50;;;3.20;;
15679;SDS011;15488;48.114;11.532;2022-08-11T16:14:59;4.10;;;3.80;;
15679;SDS011;15488;48.114;11.532;2022-08-11T16:17:46;5.20;;;3.50;;
15679;SDS011;15488;48.114;11.532;2022-08-11T16:20:16;5.03;;;4.53;;
15679;SDS011;15488;48.114;11.532;2022-08-11T16:22:47;3.45;;;3.22;;
15679;SDS011;15488;48.114;11.532;2022-08-11T16:25:16;3.35;;;3.00;;
15679;SDS011;15488;48.114;11.532;2022-08-11T16:27:48;3.40;;;3.10;;
15679;SDS011;15488;48.114;11.532;2022-08-11T16:30:20;3.00;;;2.70;;
15679;SDS011;15488;48.114;11.532;2022-08-11T16:32:48;2.90;;;2.70;;
15679;SDS011;15488;48.114;11.532;2022-08-11T16:35:18;3.20;;;2.90;;
15679;SDS011;15488;48.114;11.532;2022-08-11T16:38:05;5.07;;;2.65;;
15679;SDS011;15488;48.114;11.532;2022-08-11T16:40:50;2.80;;;2.60;;
15679;SDS011;15488;48.114;11.532;2022-08-11T16:43:20;2.83;;;2.60;;
15679;SDS011;15488;48.114;11.532;2022-08-11T16:46:14;2.70;;;2.50;;
15679;SDS011;15488;48.114;11.532;2022-08-11T16:49:00;2.72;;;2.45;;
15679;SDS011;15488;48.114;11.532;2022-08-11T16:51:31;2.83;;;2.63;;